Time;durP1;ratioP1;P1;durP2;ratioP2;P2;SDS_P1;SDS_P2;PMS_P1;PMS_P2;Temp;Humidity;BMP_temperature;BMP_pressure;BME280_temperature;BME280_humidity;BME280_pressure;Samples;Min_cycle;Max_cycle;Signal;HPM_P1;HPM_P2
2022/03/02 00:01:50;;;;;;;0.00;0.00;;;5.00;99.90;;;;;;5020349;28;20045;-60
2022/03/02 00:04:16;;;;;;;0.00;0.00;;;5.00;99.90;;;;;;5018234;28;20060;-60
2022/03/02 00:06:42;;;;;;;0.00;0.00;;;5.00;99.90;;;;;;5034896;28;20049;-59
2022/03/02 00:09:07;;;;;;;0.00;0.00;;;5.00;99.90;;;;;;5020290;28;20037;-60
2022/03/02 00:11:33;;;;;;;0.00;0.00;;;5.00;99.90;;;;;;5019172;28;20512;-60
2022/03/02 00:14:00;;;;;;;0.20;0.13;;;5.00;99.90;;;;;;5020149;28;20673;-60
2022/03/02 00:16:28;;;;;;;0.00;0.00;;;5.00;99.90;;;;;;5019774;28;20053;-58
2022/03/02 00:18:57;;;;;;;0.00;0.00;;;5.00;99.90;;;;;;5019921;28;20423;-59
2022/03/02 00:21:23;;;;;;;0.00;0.00;;;5.20;99.90;;;;;;5020426;28;20049;-60
2022/03/02 00:23:49;;;;;;;0.00;0.00;;;5.00;99.90;;;;;;5019329;28;20045;-60
2022/03/02 00:26:15;;;;;;;0.00;0.00;;;4.80;99.90;;;;;;5020093;28;20556;-60
2022/03/02 00:28:41;;;;;;;0.00;0.00;;;4.80;99.90;;;;;;5031006;28;20049;-60
2022/03/02 00:31:08;;;;;;;0.00;0.00;;;4.80;99.90;;;;;;5020477;28;20041;-61
2022/03/02 00:33:34;;;;;;;0.00;0.00;;;4.70;99.90;;;;;;5020072;28;20048;-60
2022/03/02 00:35:59;;;;;;;0.00;0.00;;;4.70;99.90;;;;;;5019512;28;20041;-60
2022/03/02 00:38:25;;;;;;;0.00;0.00;;;4.70;99.90;;;;;;5018454;28;20048;-60
2022/03/02 00:40:51;;;;;;;0.00;0.00;;;4.70;99.90;;;;;;5019929;28;20143;-59
2022/03/02 00:43:17;;;;;;;0.00;0.00;;;4.50;99.90;;;;;;5020136;28;20041;-58
2022/03/02 00:45:43;;;;;;;0.00;0.00;;;4.60;99.90;;;;;;5019128;28;20049;-58
2022/03/02 00:48:09;;;;;;;0.00;0.00;;;4.60;99.90;;;;;;5020517;28;20041;-58
2022/03/02 00:50:36;;;;;;;0.00;0.00;;;4.60;99.90;;;;;;5020564;28;20048;-58
2022/03/02 00:53:05;;;;;;;0.00;0.00;;;4.50;99.90;;;;;;5018955;28;20057;-58
2022/03/02 00:55:31;;;;;;;0.00;0.00;;;4.60;99.90;;;;;;5018356;28;20550;-58
2022/03/02 00:57:57;;;;;;;0.00;0.00;;;4.50;99.90;;;;;;5019603;28;20053;-57
2022/03/02 01:00:23;;;;;;;0.00;0.00;;;4.50;99.90;;;;;;5020050;28;20649;-59
2022/03/02 01:02:48;;;;;;;0.00;0.00;;;4.60;99.90;;;;;;5019519;28;20052;-58
2022/03/02 01:05:14;;;;;;;0.00;0.00;;;4.90;99.90;;;;;;5019200;28;20045;-58
2022/03/02 01:07:40;;;;;;;0.00;0.00;;;4.60;99.90;;;;;;5019351;28;20610;-58
2022/03/02 01:10:07;;;;;;;0.00;0.00;;;4.60;99.90;;;;;;5018694;28;20710;-58
2022/03/02 01:12:33;;;;;;;0.00;0.00;;;4.60;99.90;;;;;;5020043;28;20502;-58
2022/03/02 01:14:59;;;;;;;0.00;0.00;;;4.60;99.90;;;;;;5018867;28;20091;-58
2022/03/02 01:17:25;;;;;;;0.00;0.00;;;4.60;99.90;;;;;;5023512;28;20121;-59
2022/03/02 01:19:51;;;;;;;0.00;0.00;;;4.80;99.90;;;;;;5023399;28;20042;-58
2022/03/02 01:22:17;;;;;;;0.00;0.00;;;4.60;99.90;;;;;;5023721;28;20096;-58
2022/03/02 01:24:44;;;;;;;0.00;0.00;;;4.60;99.90;;;;;;5021808;28;20399;-58
2022/03/02 01:27:09;;;;;;;0.00;0.00;;;4.60;99.90;;;;;;5026278;28;20385;-57
2022/03/02 01:29:36;;;;;;;0.00;0.00;;;4.60;99.90;;;;;;5032524;28;20033;-58
2022/03/02 01:32:04;;;;;;;0.00;0.00;;;4.60;99.90;;;;;;5023058;28;20131;-59
2022/03/02 01:34:30;;;;;;;0.00;0.00;;;4.60;99.90;;;;;;5022939;28;20050;-58
2022/03/02 01:36:56;;;;;;;0.00;0.00;;;4.60;99.90;;;;;;5023095;28;20705;-58
2022/03/02 01:39:21;;;;;;;0.00;0.00;;;3.80;99.90;;;;;;5022675;28;20151;-58
2022/03/02 01:41:47;;;;;;;0.00;0.00;;;5.60;99.90;;;;;;5023043;28;20041;-58
2022/03/02 01:44:13;;;;;;;0.00;0.00;;;4.60;99.90;;;;;;5022543;28;20053;-58
2022/03/02 01:46:39;;;;;;;0.00;0.00;;;4.60;99.90;;;;;;5023358;28;20776;-58
2022/03/02 01:49:05;;;;;;;0.00;0.00;;;4.50;99.90;;;;;;5023010;28;20049;-58
2022/03/02 01:51:31;;;;;;;0.00;0.00;;;4.50;99.90;;;;;;5023245;28;20045;-59
2022/03/02 01:53:57;;;;;;;0.00;0.00;;;4.50;99.90;;;;;;5021712;28;20057;-58
2022/03/02 01:56:22;;;;;;;0.00;0.00;;;4.50;99.90;;;;;;5022866;28;20033;-58
2022/03/02 01:58:48;;;;;;;0.00;0.00;;;4.50;99.90;;;;;;5022433;28;20381;-59
2022/03/02 02:01:14;;;;;;;0.00;0.00;;;4.50;99.90;;;;;;5022915;28;20050;-58
2022/03/02 02:03:40;;;;;;;0.00;0.00;;;4.40;99.90;;;;;;5022369;28;20041;-58
2022/03/02 02:06:06;;;;;;;0.00;0.00;;;4.40;99.90;;;;;;5022449;28;20053;-58
2022/03/02 02:08:32;;;;;;;0.00;0.00;;;4.50;99.90;;;;;;5022376;28;20807;-58
2022/03/02 02:10:59;;;;;;;0.00;0.00;;;4.40;99.90;;;;;;5059490;22;20041;-59
2022/03/02 02:13:27;;;;;;;0.00;0.00;;;4.50;99.90;;;;;;5059992;28;20090;-58
2022/03/02 02:15:54;;;;;;;0.00;0.00;;;4.40;99.90;;;;;;5061418;28;20601;-58
2022/03/02 02:18:20;;;;;;;0.00;0.00;;;4.70;99.90;;;;;;5062735;28;20048;-58
2022/03/02 02:20:46;;;;;;;0.00;0.00;;;4.40;99.90;;;;;;5062363;28;20044;-58
2022/03/02 02:23:13;;;;;;;0.00;0.00;;;4.40;99.90;;;;;;5060338;28;20049;-58
2022/03/02 02:25:39;;;;;;;0.00;0.00;;;4.40;99.90;;;;;;5062119;28;20056;-58
2022/03/02 02:28:07;;;;;;;0.00;0.00;;;4.40;99.90;;;;;;5061514;28;20040;-58
2022/03/02 02:30:33;;;;;;;0.00;0.00;;;4.40;99.90;;;;;;5062279;28;20084;-57
2022/03/02 02:32:58;;;;;;;0.00;0.00;;;4.30;99.90;;;;;;5061823;28;20091;-58
2022/03/02 02:35:27;;;;;;;0.00;0.00;;;4.30;99.90;;;;;;5062139;28;20044;-58
2022/03/02 02:37:53;;;;;;;0.00;0.00;;;4.30;99.90;;;;;;5061403;28;20033;-58
2022/03/02 02:40:21;;;;;;;0.00;0.00;;;4.70;99.90;;;;;;5060836;28;20266;-58
2022/03/02 02:42:48;;;;;;;0.00;0.00;;;4.30;99.90;;;;;;5059805;28;20037;-59
2022/03/02 02:45:20;;;;;;;0.00;0.00;;;4.30;99.90;;;;;;5062324;28;20510;-58
2022/03/02 02:47:46;;;;;;;0.00;0.00;;;4.30;99.90;;;;;;5061862;28;20032;-58
2022/03/02 02:50:20;;;;;;;0.00;0.00;;;4.30;99.90;;;;;;5062142;28;20083;-58
2022/03/02 02:52:47;;;;;;;0.00;0.00;;;4.30;99.90;;;;;;5059680;28;20055;-60
2022/03/02 02:55:15;;;;;;;0.15;0.10;;;4.20;99.90;;;;;;5044112;28;20044;-59
2022/03/02 02:57:41;;;;;;;0.00;0.00;;;4.20;99.90;;;;;;5060387;28;20040;-60
2022/03/02 03:00:10;;;;;;;0.00;0.00;;;4.20;99.90;;;;;;5060656;28;20087;-60
2022/03/02 03:02:36;;;;;;;0.00;0.00;;;4.20;99.90;;;;;;5062136;28;20119;-60
2022/03/02 03:05:01;;;;;;;0.00;0.00;;;4.00;99.90;;;;;;5061273;28;20115;-60
2022/03/02 03:07:27;;;;;;;0.00;0.00;;;4.00;99.90;;;;;;5060907;28;20048;-60
2022/03/02 03:09:53;;;;;;;0.00;0.00;;;4.00;99.90;;;;;;5060142;28;20106;-60
2022/03/02 03:12:19;;;;;;;0.00;0.00;;;4.00;99.90;;;;;;5061969;28;20679;-60
2022/03/02 03:14:44;;;;;;;0.00;0.00;;;3.90;99.90;;;;;;5061181;28;20087;-59
2022/03/02 03:17:10;;;;;;;0.00;0.00;;;3.90;99.90;;;;;;5061557;28;20135;-60
2022/03/02 03:19:35;;;;;;;0.00;0.00;;;3.80;99.90;;;;;;5061397;28;20090;-60
2022/03/02 03:22:07;;;;;;;0.00;0.00;;;3.80;99.90;;;;;;5060748;28;20051;-60
2022/03/02 03:24:34;;;;;;;0.00;0.00;;;3.80;99.90;;;;;;5061022;28;20383;-60
2022/03/02 03:27:00;;;;;;;0.00;0.00;;;3.70;99.90;;;;;;5060325;28;20091;-60
2022/03/02 03:29:26;;;;;;;0.00;0.00;;;3.70;99.90;;;;;;5059085;28;20041;-61
2022/03/02 03:31:52;;;;;;;0.00;0.00;;;3.60;99.90;;;;;;5059823;28;20574;-60
2022/03/02 03:34:18;;;;;;;0.00;0.00;;;3.60;99.90;;;;;;5061275;28;20145;-60
2022/03/02 03:36:43;;;;;;;0.00;0.00;;;3.60;99.90;;;;;;5060947;28;20036;-60
2022/03/02 03:39:09;;;;;;;0.00;0.00;;;3.60;99.90;;;;;;5059684;28;20049;-58
2022/03/02 03:41:35;;;;;;;0.00;0.00;;;3.50;99.90;;;;;;5059798;28;20850;-58
2022/03/02 03:44:01;;;;;;;0.00;0.00;;;3.40;99.90;;;;;;5060783;28;20436;-57
2022/03/02 03:46:26;;;;;;;0.00;0.00;;;3.40;99.90;;;;;;5060909;28;20040;-57
2022/03/02 03:48:52;;;;;;;0.00;0.00;;;3.40;99.90;;;;;;5060310;28;20466;-58
2022/03/02 03:51:18;;;;;;;0.00;0.00;;;3.40;99.90;;;;;;5060586;28;20041;-57
2022/03/02 03:53:43;;;;;;;0.00;0.00;;;3.30;99.90;;;;;;5059691;28;20534;-57
2022/03/02 03:56:09;;;;;;;0.00;0.00;;;3.30;99.90;;;;;;5061157;28;20041;-58
2022/03/02 03:58:35;;;;;;;0.00;0.00;;;3.30;99.90;;;;;;5061071;28;20127;-57
2022/03/02 04:01:01;;;;;;;0.00;0.00;;;3.20;99.90;;;;;;5058362;28;20041;-57
2022/03/02 04:03:26;;;;;;;0.00;0.00;;;3.20;99.90;;;;;;5060690;28;20044;-58
2022/03/02 04:05:52;;;;;;;0.00;0.00;;;3.20;99.90;;;;;;5060357;28;20143;-57
2022/03/02 04:08:18;;;;;;;0.00;0.00;;;3.10;99.90;;;;;;5058609;28;20059;-57
2022/03/02 04:10:45;;;;;;;0.00;0.00;;;3.10;99.90;;;;;;5059449;28;20449;-58
2022/03/02 04:13:12;;;;;;;0.00;0.00;;;3.00;99.90;;;;;;5060847;28;20048;-56
2022/03/02 04:15:38;;;;;;;0.00;0.00;;;3.00;99.90;;;;;;5059543;28;20056;-57
2022/03/02 04:18:06;;;;;;;0.00;0.00;;;3.00;99.90;;;;;;5060054;28;20044;-58
2022/03/02 04:20:33;;;;;;;0.00;0.00;;;3.00;99.90;;;;;;5059721;28;20084;-58
2022/03/02 04:22:59;;;;;;;0.00;0.00;;;3.00;99.90;;;;;;5059343;28;20047;-57
2022/03/02 04:25:25;;;;;;;0.00;0.00;;;2.90;99.90;;;;;;5060539;28;20044;-58
2022/03/02 04:27:50;;;;;;;0.00;0.00;;;2.90;99.90;;;;;;5059510;28;20045;-57
2022/03/02 04:30:16;;;;;;;0.00;0.00;;;2.80;99.90;;;;;;5059645;28;20400;-58
2022/03/02 04:32:42;;;;;;;0.00;0.00;;;2.80;99.90;;;;;;5059884;28;20042;-59
2022/03/02 04:35:09;;;;;;;0.00;0.00;;;2.80;99.90;;;;;;5060522;28;20056;-60
2022/03/02 04:37:35;;;;;;;0.00;0.00;;;2.70;99.90;;;;;;5059642;28;20380;-60
2022/03/02 04:40:01;;;;;;;0.00;0.00;;;2.70;99.90;;;;;;5059237;28;20626;-60
2022/03/02 04:42:26;;;;;;;0.00;0.00;;;2.70;99.90;;;;;;5060559;28;20072;-60
2022/03/02 04:44:52;;;;;;;0.00;0.00;;;2.70;99.90;;;;;;5058542;28;20045;-60
2022/03/02 04:47:18;;;;;;;0.00;0.00;;;2.70;99.90;;;;;;5060266;28;20513;-61
2022/03/02 04:49:43;;;;;;;0.00;0.00;;;2.60;99.90;;;;;;5060203;28;20044;-59
2022/03/02 04:52:09;;;;;;;0.00;0.00;;;2.60;99.90;;;;;;5063865;28;20661;-61
2022/03/02 04:57:19;;;;;;;0.00;0.00;;;2.60;99.90;;;;;;5063660;28;20048;-60
2022/03/02 04:59:45;;;;;;;0.00;0.00;;;2.60;99.90;;;;;;5063753;28;20052;-60
2022/03/02 05:02:10;;;;;;;0.00;0.00;;;2.60;99.90;;;;;;5064454;28;20907;-60
2022/03/02 05:04:36;;;;;;;0.00;0.00;;;2.50;99.90;;;;;;5064450;28;20047;-60
2022/03/02 05:07:02;;;;;;;0.00;0.00;;;2.50;99.90;;;;;;5062378;28;20598;-60
2022/03/02 05:09:27;;;;;;;0.00;0.00;;;2.50;99.90;;;;;;5063629;28;20045;-60
2022/03/02 05:11:53;;;;;;;0.00;0.00;;;2.50;99.90;;;;;;5063605;28;20041;-59
2022/03/02 05:14:19;;;;;;;0.40;0.22;;;2.40;99.90;;;;;;5063912;28;20036;-60
2022/03/02 05:16:44;;;;;;;0.00;0.00;;;2.40;99.90;;;;;;5062815;28;20048;-60
2022/03/02 05:19:10;;;;;;;0.10;0.10;;;2.40;99.90;;;;;;5063497;28;20037;-60
2022/03/02 05:21:36;;;;;;;0.00;0.00;;;3.10;99.90;;;;;;5064001;28;20127;-60
2022/03/02 05:24:02;;;;;;;0.00;0.00;;;2.30;99.90;;;;;;5062631;28;20242;-60
2022/03/02 05:26:28;;;;;;;0.00;0.00;;;2.30;99.90;;;;;;5062953;28;20072;-60
2022/03/02 05:28:53;;;;;;;0.00;0.00;;;1.60;99.90;;;;;;5062514;28;20554;-59
2022/03/02 05:31:20;;;;;;;0.00;0.00;;;2.20;99.90;;;;;;5063568;28;20064;-59
2022/03/02 05:33:46;;;;;;;0.00;0.00;;;2.90;99.90;;;;;;5062955;28;20077;-59
2022/03/02 05:36:11;;;;;;;0.00;0.00;;;2.20;99.90;;;;;;5063316;28;20053;-59
2022/03/02 05:38:37;;;;;;;0.00;0.00;;;2.20;99.90;;;;;;5062424;28;20036;-59
2022/03/02 05:41:03;;;;;;;0.00;0.00;;;2.10;99.90;;;;;;5062820;28;20636;-59
2022/03/02 05:43:28;;;;;;;0.00;0.00;;;2.00;99.90;;;;;;5063253;28;20661;-59
2022/03/02 05:45:54;;;;;;;0.00;0.00;;;2.00;99.90;;;;;;5062766;28;20097;-59
2022/03/02 05:48:19;;;;;;;0.00;0.00;;;1.90;99.90;;;;;;5061248;28;20449;-59
2022/03/02 05:50:45;;;;;;;0.00;0.00;;;2.30;99.90;;;;;;5062695;28;20040;-59
2022/03/02 05:53:11;;;;;;;0.00;0.00;;;3.20;99.90;;;;;;5062741;28;20033;-59
2022/03/02 05:55:36;;;;;;;0.00;0.00;;;1.80;99.90;;;;;;5063396;28;20541;-59
2022/03/02 05:58:02;;;;;;;0.00;0.00;;;1.90;99.90;;;;;;5061820;28;20029;-59
2022/03/02 06:00:27;;;;;;;0.00;0.00;;;1.90;99.90;;;;;;5062708;28;20047;-59
2022/03/02 06:02:53;;;;;;;0.00;0.00;;;1.90;99.90;;;;;;5062275;28;20793;-59
2022/03/02 06:05:19;;;;;;;0.00;0.00;;;3.50;99.90;;;;;;5062754;28;20044;-58
2022/03/02 06:07:44;;;;;;;0.00;0.00;;;1.90;99.90;;;;;;5059960;28;20045;-58
2022/03/02 06:10:11;;;;;;;0.00;0.00;;;2.00;99.90;;;;;;5062700;28;20115;-58
2022/03/02 06:12:37;;;;;;;0.00;0.00;;;2.00;99.90;;;;;;5063162;28;20125;-58
2022/03/02 06:15:04;;;;;;;0.00;0.00;;;1.90;99.90;;;;;;5061005;28;20548;-58
2022/03/02 06:17:30;;;;;;;0.00;0.00;;;1.80;99.90;;;;;;5062062;28;20445;-58
2022/03/02 06:19:55;;;;;;;0.00;0.00;;;1.80;99.90;;;;;;5060602;28;20528;-59
2022/03/02 06:22:25;;;;;;;0.00;0.00;;;1.80;99.90;;;;;;5062079;28;20052;-58
2022/03/02 06:24:54;;;;;;;0.00;0.00;;;1.80;99.90;;;;;;5062274;28;20058;-58
2022/03/02 06:27:21;;;;;;;0.00;0.00;;;1.80;99.90;;;;;;5061313;28;20040;-60
2022/03/02 06:29:48;;;;;;;0.20;0.20;;;1.80;99.90;;;;;;5060688;28;20123;-60
2022/03/02 06:32:15;;;;;;;0.00;0.00;;;1.80;99.90;;;;;;5062693;28;20055;-58
2022/03/02 06:34:41;;;;;;;0.00;0.00;;;1.80;99.90;;;;;;5062324;28;20079;-57
2022/03/02 06:37:07;;;;;;;0.00;0.00;;;1.90;99.90;;;;;;5061323;28;20036;-59
2022/03/02 06:39:33;;;;;;;0.00;0.00;;;1.90;99.90;;;;;;5062233;28;20098;-59
2022/03/02 06:42:21;;;;;;;0.00;0.00;;;1.90;99.90;;;;;;5061932;28;20051;-58
2022/03/02 06:44:54;;;;;;;0.00;0.00;;;1.90;99.90;;;;;;5061528;28;20040;-58
2022/03/02 06:47:32;;;;;;;0.00;0.00;;;1.70;99.90;;;;;;5062340;28;20124;-59
2022/03/02 06:50:10;;;;;;;0.00;0.00;;;1.90;99.90;;;;;;5061828;28;20086;-58
2022/03/02 06:52:41;;;;;;;0.00;0.00;;;1.90;99.90;;;;;;5061758;28;20044;-60
2022/03/02 06:55:15;;;;;;;0.00;0.00;;;1.80;99.90;;;;;;5060973;28;20060;-60
2022/03/02 06:57:50;;;;;;;0.00;0.00;;;1.80;99.90;;;;;;5061029;28;20552;-59
2022/03/02 07:00:16;;;;;;;0.00;0.00;;;1.80;99.90;;;;;;5061907;28;20055;-60
2022/03/02 07:02:51;;;;;;;0.00;0.00;;;1.80;99.90;;;;;;5060496;28;20491;-60
2022/03/02 07:05:18;;;;;;;0.00;0.00;;;1.80;99.90;;;;;;5059500;28;20057;-61
2022/03/02 07:07:45;;;;;;;0.00;0.00;;;2.30;99.90;;;;;;5060911;28;20052;-61
2022/03/02 07:10:11;;;;;;;0.20;0.20;;;1.70;99.90;;;;;;5061625;28;20508;-60
2022/03/02 07:12:38;;;;;;;0.00;0.00;;;1.80;99.90;;;;;;5061420;28;20055;-59
2022/03/02 07:15:05;;;;;;;0.00;0.00;;;1.80;99.90;;;;;;5060448;28;20045;-60
2022/03/02 07:17:34;;;;;;;1.90;1.75;;;1.80;99.90;;;;;;5061366;28;20093;-58
2022/03/02 07:20:01;;;;;;;0.00;0.00;;;1.80;99.90;;;;;;5060961;28;20113;-58
2022/03/02 07:22:33;;;;;;;0.00;0.00;;;1.90;99.90;;;;;;5060700;28;20048;-58
2022/03/02 07:25:03;;;;;;;0.00;0.00;;;1.90;99.90;;;;;;5061128;28;20041;-59
2022/03/02 07:27:30;;;;;;;0.00;0.00;;;2.00;99.90;;;;;;5060877;28;20036;-59
2022/03/02 07:29:56;;;;;;;0.00;0.00;;;2.10;99.90;;;;;;5060649;28;20076;-58
2022/03/02 07:32:25;;;;;;;0.00;0.00;;;2.10;99.90;;;;;;5060459;28;20090;-59
2022/03/02 07:34:57;;;;;;;0.00;0.00;;;2.20;99.90;;;;;;5060822;28;20065;-58
2022/03/02 07:37:23;;;;;;;0.00;0.00;;;2.20;99.90;;;;;;5060617;28;20172;-61
2022/03/02 07:39:50;;;;;;;0.00;0.00;;;2.20;99.90;;;;;;5060602;28;20119;-61
2022/03/02 07:42:16;;;;;;;0.00;0.00;;;2.40;99.90;;;;;;5059434;28;20072;-58
2022/03/02 07:44:41;;;;;;;0.00;0.00;;;2.30;99.90;;;;;;5059171;28;20056;-59
2022/03/02 07:47:08;;;;;;;0.00;0.00;;;2.30;99.90;;;;;;5061325;28;20056;-58
2022/03/02 07:49:35;;;;;;;0.00;0.00;;;2.40;99.90;;;;;;5060872;28;20041;-58
2022/03/02 07:52:05;;;;;;;0.00;0.00;;;2.40;99.90;;;;;;5058858;28;20059;-58
2022/03/02 07:54:34;;;;;;;0.00;0.00;;;2.40;99.90;;;;;;5060840;28;20094;-58
2022/03/02 07:57:01;;;;;;;0.00;0.00;;;2.50;99.90;;;;;;5060359;28;20355;-58
2022/03/02 07:59:34;;;;;;;0.00;0.00;;;2.50;99.90;;;;;;5059754;28;20048;-59
2022/03/02 08:02:00;;;;;;;0.00;0.00;;;2.60;99.90;;;;;;5060441;28;20862;-58
2022/03/02 08:04:28;;;;;;;0.00;0.00;;;2.60;99.90;;;;;;5060732;28;20041;-58
2022/03/02 08:06:54;;;;;;;0.00;0.00;;;2.60;99.90;;;;;;5059678;28;20055;-59
2022/03/02 08:09:20;;;;;;;0.00;0.00;;;2.70;99.90;;;;;;5052793;28;20111;-58
2022/03/02 08:11:46;;;;;;;0.00;0.00;;;2.90;99.90;;;;;;5053685;28;20094;-58
2022/03/02 08:14:12;;;;;;;0.00;0.00;;;2.90;99.90;;;;;;5040121;28;20133;-58
2022/03/02 08:16:41;;;;;;;0.00;0.00;;;3.00;99.90;;;;;;5039138;28;20119;-58
2022/03/02 08:19:07;;;;;;;0.00;0.00;;;3.50;99.90;;;;;;5039873;28;20120;-58
2022/03/02 08:21:35;;;;;;;0.00;0.00;;;3.10;99.90;;;;;;5039452;28;20124;-58
2022/03/02 08:24:06;;;;;;;0.00;0.00;;;3.20;99.90;;;;;;5038619;28;20051;-58
2022/03/02 08:26:33;;;;;;;0.00;0.00;;;3.20;99.90;;;;;;5046248;28;20037;-58
2022/03/02 08:29:04;;;;;;;0.00;0.00;;;3.30;99.90;;;;;;5057837;28;20102;-56
2022/03/02 08:31:31;;;;;;;0.00;0.00;;;3.30;99.90;;;;;;5060289;28;20048;-62
2022/03/02 08:33:59;;;;;;;0.00;0.00;;;3.40;99.90;;;;;;5058148;28;20507;-60
2022/03/02 08:36:33;;;;;;;0.00;0.00;;;3.50;99.90;;;;;;5058528;28;20550;-60
2022/03/02 08:39:01;;;;;;;0.00;0.00;;;3.50;99.90;;;;;;5059220;28;20045;-58
2022/03/02 08:41:27;;;;;;;0.00;0.00;;;3.50;99.90;;;;;;5060076;28;20049;-58
2022/03/02 08:43:52;;;;;;;0.00;0.00;;;4.10;99.90;;;;;;5059360;28;20052;-59
2022/03/02 08:46:18;;;;;;;0.00;0.00;;;3.60;99.90;;;;;;5059376;28;20040;-59
2022/03/02 08:48:43;;;;;;;0.00;0.00;;;4.40;99.90;;;;;;5059578;28;20048;-59
2022/03/02 08:51:09;;;;;;;0.00;0.00;;;3.50;99.90;;;;;;5058974;28;20364;-60
2022/03/02 08:53:38;;;;;;;0.00;0.00;;;3.90;99.90;;;;;;5059411;28;20047;-60
2022/03/02 08:56:05;;;;;;;0.00;0.00;;;4.10;99.90;;;;;;5058759;28;20089;-60
2022/03/02 08:58:32;;;;;;;0.00;0.00;;;4.00;99.90;;;;;;5058591;28;20048;-59
2022/03/02 09:00:59;;;;;;;0.00;0.00;;;4.10;99.90;;;;;;5059329;28;20162;-60
2022/03/02 09:03:25;;;;;;;0.00;0.00;;;5.60;99.90;;;;;;5059872;28;20496;-59
2022/03/02 09:05:51;;;;;;;0.00;0.00;;;4.30;99.90;;;;;;5057157;28;20167;-59
2022/03/02 09:08:18;;;;;;;0.00;0.00;;;4.40;99.90;;;;;;5059001;28;20045;-59
2022/03/02 09:10:44;;;;;;;0.00;0.00;;;4.40;99.90;;;;;;5059321;28;20064;-59
2022/03/02 09:13:13;;;;;;;0.00;0.00;;;4.60;99.90;;;;;;5038099;28;20045;-59
2022/03/02 09:15:40;;;;;;;0.00;0.00;;;4.70;99.90;;;;;;5039487;28;20040;-59
2022/03/02 09:18:06;;;;;;;0.00;0.00;;;4.80;99.90;;;;;;5039859;28;20091;-59
2022/03/02 09:20:32;;;;;;;0.03;0.03;;;4.90;99.90;;;;;;5039629;28;20154;-59
2022/03/02 09:23:04;;;;;;;0.00;0.00;;;4.90;99.90;;;;;;5038516;28;20048;-59
2022/03/02 09:25:31;;;;;;;0.00;0.00;;;5.00;99.90;;;;;;5053566;28;20064;-60
2022/03/02 09:27:57;;;;;;;0.00;0.00;;;5.30;99.90;;;;;;5057997;28;20561;-58
2022/03/02 09:30:23;;;;;;;0.10;0.10;;;6.10;99.90;;;;;;5059485;28;20044;-59
2022/03/02 09:32:53;;;;;;;0.00;0.00;;;8.10;99.90;;;;;;5059044;28;20056;-66
2022/03/02 09:35:21;;;;;;;0.00;0.00;;;7.70;99.90;;;;;;5059235;28;20395;-58
2022/03/02 09:37:49;;;;;;;0.00;0.00;;;8.10;99.90;;;;;;5061029;28;20036;-58
2022/03/02 09:40:23;;;;;;;0.00;0.00;;;8.40;99.90;;;;;;5063268;28;20044;-58
2022/03/02 09:43:05;;;;;;;0.55;0.20;;;9.40;99.90;;;;;;5062637;28;20037;-54
2022/03/02 09:45:33;;;;;;;0.00;0.00;;;9.30;99.90;;;;;;5063775;28;20047;-58
2022/03/02 09:48:01;;;;;;;0.00;0.00;;;10.00;99.90;;;;;;5062710;28;20043;-58
2022/03/02 09:50:33;;;;;;;0.00;0.00;;;10.20;99.90;;;;;;5062669;28;20051;-58
2022/03/02 09:53:01;;;;;;;0.10;0.10;;;11.00;99.90;;;;;;5060568;28;20067;-58
2022/03/02 09:55:27;;;;;;;0.10;0.10;;;10.90;99.90;;;;;;5063209;28;20135;-60
2022/03/02 09:57:56;;;;;;;0.00;0.00;;;11.10;99.90;;;;;;5061815;28;20133;-62
2022/03/02 10:00:24;;;;;;;0.00;0.00;;;11.10;99.90;;;;;;5062730;28;20518;-62
2022/03/02 10:02:57;;;;;;;0.00;0.00;;;11.10;99.90;;;;;;5061926;28;20037;-63
2022/03/02 10:05:32;;;;;;;0.00;0.00;;;11.30;99.90;;;;;;5062807;28;20047;-64
2022/03/02 10:08:00;;;;;;;;;;;11.40;99.90;;;;;;5062521;28;20028;-62
2022/03/02 10:10:28;;;;;;;0.00;0.00;;;11.60;99.90;;;;;;5062497;28;20315;-62
2022/03/02 10:12:56;;;;;;;0.00;0.00;;;11.70;99.90;;;;;;5062460;28;20052;-63
2022/03/02 10:15:22;;;;;;;0.00;0.00;;;12.20;99.90;;;;;;5062189;28;20048;-63
2022/03/02 10:17:51;;;;;;;0.00;0.00;;;12.00;99.90;;;;;;5061906;28;20048;-62
2022/03/02 10:20:18;;;;;;;0.10;0.10;;;12.00;99.90;;;;;;5062901;28;20049;-62
2022/03/02 10:23:05;;;;;;;0.00;0.00;;;12.00;99.90;;;;;;5061567;28;20040;-62
2022/03/02 10:25:49;;;;;;;0.00;0.00;;;11.70;99.90;;;;;;5062509;28;20044;-62
2022/03/02 10:28:31;;;;;;;0.75;0.15;;;11.70;99.90;;;;;;5061133;28;20098;-62
2022/03/02 10:31:15;;;;;;;0.10;0.10;;;11.90;99.90;;;;;;5062001;28;20123;-62
2022/03/02 10:34:21;;;;;;;0.03;0.03;;;12.10;99.90;;;;;;5061580;28;20056;-62
2022/03/02 10:36:50;;;;;;;0.00;0.00;;;12.20;99.90;;;;;;5060144;28;20293;-62
2022/03/02 10:39:49;;;;;;;0.00;0.00;;;12.20;99.90;;;;;;5061524;28;20040;-62
2022/03/02 10:42:21;;;;;;;0.00;0.00;;;11.90;99.90;;;;;;5062284;28;20050;-62
2022/03/02 10:45:10;;;;;;;0.10;0.10;;;11.70;99.90;;;;;;5061792;28;20764;-62
2022/03/02 10:48:00;;;;;;;0.00;0.00;;;11.80;99.90;;;;;;5061534;28;20071;-62
2022/03/02 10:50:29;;;;;;;0.00;0.00;;;11.50;99.90;;;;;;5060699;28;20053;-63
2022/03/02 10:52:56;;;;;;;0.00;0.00;;;11.60;99.90;;;;;;5061055;28;20154;-63
2022/03/02 10:55:22;;;;;;;0.00;0.00;;;11.30;99.90;;;;;;5061639;28;20041;-62
2022/03/02 10:57:50;;;;;;;0.43;0.20;;;11.60;99.90;;;;;;5061276;28;20136;-63
2022/03/02 11:00:19;;;;;;;1.02;0.38;;;11.80;99.90;;;;;;5060629;28;20455;-62
2022/03/02 11:02:48;;;;;;;0.00;0.00;;;11.90;99.90;;;;;;5060042;28;20049;-61
2022/03/02 11:05:17;;;;;;;0.00;0.00;;;12.10;99.90;;;;;;5061107;28;20116;-62
2022/03/02 11:07:43;;;;;;;0.00;0.00;;;12.20;99.90;;;;;;5060830;28;20048;-61
2022/03/02 11:10:12;;;;;;;0.00;0.00;;;12.40;99.90;;;;;;5061905;28;20313;-62
2022/03/02 11:12:42;;;;;;;0.00;0.00;;;12.20;99.90;;;;;;5061327;28;20131;-62
2022/03/02 11:15:09;;;;;;;0.30;0.10;;;12.10;99.90;;;;;;5061884;28;20541;-62
2022/03/02 11:17:36;;;;;;;0.00;0.00;;;11.80;99.90;;;;;;5061487;28;20079;-62
2022/03/02 11:20:09;;;;;;;0.00;0.00;;;11.20;99.90;;;;;;5061016;28;20457;-62
2022/03/02 11:22:36;;;;;;;0.00;0.00;;;11.60;99.90;;;;;;5060489;28;20053;-62
2022/03/02 11:25:04;;;;;;;0.75;0.10;;;11.50;99.90;;;;;;5060918;28;20458;-62
2022/03/02 11:27:40;;;;;;;0.17;0.10;;;11.80;99.90;;;;;;5061091;28;20646;-62
2022/03/02 11:30:06;;;;;;;0.15;0.15;;;11.90;99.90;;;;;;5060725;28;20044;-62
2022/03/02 11:32:34;;;;;;;0.00;0.00;;;11.80;99.90;;;;;;5059829;28;20098;-62
2022/03/02 11:35:02;;;;;;;0.00;0.00;;;11.70;99.90;;;;;;5060698;28;20056;-65
2022/03/02 11:37:28;;;;;;;0.00;0.00;;;12.20;99.90;;;;;;5060616;28;20048;-62
2022/03/02 11:39:54;;;;;;;0.00;0.00;;;11.90;99.90;;;;;;5058491;28;20066;-62
2022/03/02 11:42:28;;;;;;;0.00;0.00;;;12.10;99.90;;;;;;5060737;28;20048;-62
2022/03/02 11:44:56;;;;;;;0.00;0.00;;;12.30;99.90;;;;;;5060930;28;20048;-61
2022/03/02 11:47:23;;;;;;;0.00;0.00;;;12.20;99.90;;;;;;5060214;28;20661;-62
2022/03/02 11:49:50;;;;;;;0.32;0.20;;;11.90;99.90;;;;;;5060473;28;20079;-61
2022/03/02 11:52:17;;;;;;;0.00;0.00;;;12.10;99.90;;;;;;5060278;28;20079;-62
2022/03/02 11:54:54;;;;;;;0.00;0.00;;;11.90;99.90;;;;;;5060265;28;20042;-61
2022/03/02 11:57:23;;;;;;;0.00;0.00;;;12.10;99.90;;;;;;5060439;28;20047;-62
2022/03/02 12:00:03;;;;;;;0.00;0.00;;;11.90;99.90;;;;;;5060195;28;20051;-62
2022/03/02 12:02:29;;;;;;;0.00;0.00;;;12.00;99.90;;;;;;5059863;28;20041;-62
2022/03/02 12:04:59;;;;;;;0.00;0.00;;;12.20;99.90;;;;;;5060375;28;20048;-62
2022/03/02 12:07:34;;;;;;;0.00;0.00;;;12.10;99.90;;;;;;5059696;28;20040;-62
2022/03/02 12:10:00;;;;;;;;;;;12.10;99.90;;;;;;5060084;28;20056;-62
2022/03/02 12:12:25;;;;;;;0.00;0.00;;;12.20;99.90;;;;;;5060327;28;19935;-61
2022/03/02 12:14:56;;;;;;;0.00;0.00;;;12.50;99.90;;;;;;5060389;28;20486;-63
2022/03/02 12:17:33;;;;;;;0.00;0.00;;;12.30;99.90;;;;;;5060315;28;20127;-62
2022/03/02 12:20:07;;;;;;;0.20;0.20;;;12.40;99.90;;;;;;5059411;28;20094;-61
2022/03/02 12:22:47;;;;;;;0.00;0.00;;;12.20;99.90;;;;;;5059829;28;20049;-62
2022/03/02 12:25:16;;;;;;;0.00;0.00;;;12.00;99.90;;;;;;5059415;28;20040;-62
2022/03/02 12:27:47;;;;;;;0.00;0.00;;;12.10;99.90;;;;;;5059295;28;20136;-62
2022/03/02 12:30:12;;;;;;;0.10;0.10;;;12.20;99.90;;;;;;5059987;28;20032;-62
2022/03/02 12:32:42;;;;;;;0.20;0.20;;;12.40;99.90;;;;;;5059409;28;20127;-62
2022/03/02 12:35:11;;;;;;;0.00;0.00;;;12.50;99.90;;;;;;5060393;28;20458;-62
2022/03/02 12:37:37;;;;;;;0.00;0.00;;;12.20;99.90;;;;;;5059977;28;20040;-65
2022/03/02 12:40:06;;;;;;;0.00;0.00;;;12.20;99.90;;;;;;5059552;28;20047;-64
2022/03/02 12:42:32;;;;;;;0.00;0.00;;;12.30;99.90;;;;;;5058072;28;20044;-63
2022/03/02 12:44:58;;;;;;;0.05;0.00;;;12.40;99.90;;;;;;5059467;28;20116;-63
2022/03/02 12:47:27;;;;;;;0.00;0.00;;;12.20;99.90;;;;;;5059929;28;20613;-63
2022/03/02 12:49:54;;;;;;;0.00;0.00;;;12.30;99.90;;;;;;5059590;28;20051;-64
2022/03/02 12:52:22;;;;;;;0.00;0.00;;;12.20;99.90;;;;;;5058510;28;20070;-62
2022/03/02 12:54:48;;;;;;;0.00;0.00;;;12.50;99.90;;;;;;5059523;28;20129;-62
2022/03/02 12:57:16;;;;;;;0.00;0.00;;;11.70;99.90;;;;;;5060265;28;20037;-62
2022/03/02 12:59:43;;;;;;;0.10;0.10;;;11.90;99.90;;;;;;5059417;28;20052;-62
2022/03/02 13:02:11;;;;;;;0.10;0.10;;;12.00;99.90;;;;;;5059651;28;20032;-62